createdAt,value
2017-12-17T00:01:30.794Z,30.00
2017-12-17T00:04:00.763Z,28.43
2017-12-17T00:06:29.983Z,32.47
2017-12-17T00:08:59.976Z,34.73
2017-12-17T00:11:29.332Z,35.07
2017-12-17T00:13:59.351Z,33.83
2017-12-17T00:16:29.304Z,29.13
2017-12-17T00:18:58.498Z,32.07
2017-12-17T00:21:27.700Z,30.50
2017-12-17T00:23:56.885Z,35.83
2017-12-17T00:26:26.110Z,36.80
2017-12-17T00:28:55.373Z,35.00
2017-12-17T00:31:24.570Z,38.83
2017-12-17T00:33:53.798Z,37.87
2017-12-17T00:36:23.768Z,41.50
2017-12-17T00:38:52.994Z,39.03
2017-12-17T00:41:22.203Z,36.93
2017-12-17T00:43:51.479Z,33.30
2017-12-17T00:46:20.685Z,33.63
2017-12-17T00:48:49.910Z,39.40
2017-12-17T00:51:19.951Z,35.50
2017-12-17T00:53:49.540Z,34.77
2017-12-17T00:56:19.506Z,33.97
2017-12-17T00:58:48.740Z,35.70
2017-12-17T01:01:17.944Z,41.27
2017-12-17T01:03:47.934Z,35.17
2017-12-17T01:06:17.138Z,39.87
2017-12-17T01:08:47.877Z,33.77
2017-12-17T01:11:17.095Z,35.97
2017-12-17T01:13:47.063Z,35.10
2017-12-17T01:16:16.277Z,35.90
2017-12-17T01:18:46.269Z,38.70
2017-12-17T01:21:15.510Z,34.67
2017-12-17T01:23:45.511Z,35.60
2017-12-17T01:26:16.247Z,37.00
2017-12-17T01:28:45.415Z,34.67
2017-12-17T01:31:14.642Z,31.03
2017-12-17T01:33:45.368Z,35.13
2017-12-17T01:36:14.586Z,33.00
2017-12-17T01:38:44.570Z,31.73
2017-12-17T01:41:14.663Z,38.40
2017-12-17T01:43:44.661Z,30.17
2017-12-17T01:46:13.831Z,34.03
2017-12-17T01:48:43.016Z,34.87
2017-12-17T01:51:12.187Z,30.07
2017-12-17T01:53:41.411Z,31.53
2017-12-17T01:56:10.599Z,29.00
2017-12-17T01:58:39.865Z,27.00
2017-12-17T02:01:09.063Z,32.03
2017-12-17T02:03:38.272Z,35.03
2017-12-17T02:06:07.479Z,32.17
2017-12-17T02:08:36.687Z,31.43
2017-12-17T02:11:05.874Z,28.70
2017-12-17T02:13:35.193Z,32.37
2017-12-17T02:16:04.703Z,32.30
2017-12-17T02:18:33.920Z,25.10
2017-12-17T02:21:03.935Z,31.40
2017-12-17T02:23:33.907Z,29.47
2017-12-17T02:26:03.087Z,27.40
2017-12-17T02:28:32.287Z,28.47
2017-12-17T02:31:01.476Z,28.60
2017-12-17T02:33:30.834Z,27.87
2017-12-17T02:36:00.788Z,31.17
2017-12-17T02:38:30.042Z,29.97
2017-12-17T02:41:00.080Z,26.60
2017-12-17T02:43:29.205Z,26.03
2017-12-17T02:45:58.546Z,30.63
2017-12-17T02:48:27.779Z,28.23
2017-12-17T02:50:57.000Z,32.07
2017-12-17T02:53:26.340Z,32.60
2017-12-17T02:55:55.538Z,29.63
2017-12-17T02:58:24.702Z,28.97
2017-12-17T03:00:53.992Z,25.60
2017-12-17T03:03:23.188Z,29.13
2017-12-17T03:05:52.423Z,28.13
2017-12-17T03:08:21.621Z,33.60
2017-12-17T03:10:50.818Z,31.63
2017-12-17T03:13:20.000Z,33.90
2017-12-17T03:15:49.232Z,33.20
2017-12-17T03:18:19.196Z,28.00
2017-12-17T03:20:48.392Z,34.60
2017-12-17T03:23:17.610Z,34.93
2017-12-17T03:25:46.791Z,29.90
2017-12-17T03:28:16.011Z,27.70
2017-12-17T03:30:45.208Z,30.67
2017-12-17T03:33:14.439Z,31.53
2017-12-17T03:35:44.399Z,28.40
2017-12-17T03:38:13.581Z,38.60
2017-12-17T03:40:42.763Z,33.27
2017-12-17T03:43:11.987Z,34.47
2017-12-17T03:45:41.147Z,37.60
2017-12-17T03:48:10.346Z,32.27
2017-12-17T03:50:40.315Z,37.50
2017-12-17T03:53:09.536Z,34.70
2017-12-17T03:55:38.750Z,34.97
2017-12-17T03:58:07.950Z,35.97
2017-12-17T04:00:37.914Z,31.10
2017-12-17T04:03:07.097Z,37.30
2017-12-17T04:05:36.387Z,35.10
2017-12-17T04:08:05.570Z,39.93
2017-12-17T04:10:34.804Z,34.27
2017-12-17T04:13:04.130Z,35.70
2017-12-17T04:15:33.395Z,34.97
2017-12-17T04:18:03.382Z,31.30
2017-12-17T04:20:32.599Z,34.40
2017-12-17T04:23:01.849Z,34.00
2017-12-17T04:25:31.830Z,34.63
2017-12-17T04:28:00.999Z,37.13
2017-12-17T04:30:30.203Z,30.37
2017-12-17T04:32:59.648Z,32.47
2017-12-17T04:35:28.922Z,34.60
2017-12-17T04:37:58.119Z,33.60
2017-12-17T04:40:27.312Z,33.03
2017-12-17T04:42:56.509Z,35.27
2017-12-17T04:45:25.718Z,30.67
2017-12-17T04:47:55.180Z,32.50
2017-12-17T04:50:24.391Z,35.03
2017-12-17T04:52:53.599Z,31.93
2017-12-17T04:55:22.784Z,29.90
2017-12-17T04:57:52.164Z,30.33
2017-12-17T05:00:22.134Z,30.97
2017-12-17T05:02:51.327Z,29.77
2017-12-17T05:05:20.579Z,31.30
2017-12-17T05:07:49.776Z,33.53
2017-12-17T05:10:18.982Z,27.53
2017-12-17T05:12:48.176Z,31.20
2017-12-17T05:15:17.398Z,34.10
2017-12-17T05:17:46.583Z,36.67
2017-12-17T05:20:15.854Z,33.37
2017-12-17T05:22:45.791Z,37.33
2017-12-17T05:25:14.993Z,33.50
2017-12-17T05:27:44.174Z,34.90
2017-12-17T05:30:13.406Z,31.87
2017-12-17T05:32:42.584Z,38.17
2017-12-17T05:35:11.798Z,37.83
2017-12-17T05:37:40.997Z,33.00
2017-12-17T05:40:10.197Z,37.90
2017-12-17T05:42:39.495Z,33.47
2017-12-17T05:45:09.013Z,33.70
2017-12-17T05:47:38.659Z,38.13
2017-12-17T05:50:08.730Z,31.00
2017-12-17T05:52:37.912Z,34.20
2017-12-17T05:55:07.096Z,40.90
2017-12-17T05:57:36.366Z,38.53
2017-12-17T06:00:06.326Z,35.47
2017-12-17T06:02:35.531Z,39.60
2017-12-17T06:05:04.724Z,37.93
2017-12-17T06:07:33.970Z,34.37
2017-12-17T06:10:03.098Z,35.50
2017-12-17T06:12:32.290Z,32.70
2017-12-17T06:15:01.479Z,33.73
2017-12-17T06:17:30.685Z,29.83
2017-12-17T06:19:59.912Z,34.27
2017-12-17T06:22:29.121Z,35.10
2017-12-17T06:24:58.348Z,31.43
2017-12-17T06:27:28.315Z,28.60
2017-12-17T06:29:57.536Z,29.07
2017-12-17T06:32:26.723Z,29.43
2017-12-17T06:34:55.920Z,28.37
2017-12-17T06:37:25.092Z,27.33
2017-12-17T06:39:54.318Z,29.60
2017-12-17T06:42:23.535Z,25.60
2017-12-17T06:44:52.735Z,31.00
2017-12-17T06:47:21.911Z,29.83
2017-12-17T06:49:51.123Z,28.63
2017-12-17T06:52:20.314Z,29.90
2017-12-17T06:54:49.550Z,28.67
2017-12-17T06:57:19.531Z,25.30
2017-12-17T06:59:48.818Z,26.97
2017-12-17T07:02:18.034Z,27.43
2017-12-17T07:04:47.227Z,31.70
2017-12-17T07:07:16.460Z,24.43
2017-12-17T07:09:45.636Z,26.10
2017-12-17T07:12:15.598Z,27.43
2017-12-17T07:14:44.900Z,25.63
2017-12-17T07:17:14.148Z,25.77
2017-12-17T07:19:43.378Z,23.67
2017-12-17T07:22:12.809Z,29.17
2017-12-17T07:24:42.021Z,28.50
2017-12-17T07:27:11.258Z,30.43
2017-12-17T07:29:40.500Z,27.33
2017-12-17T07:32:09.695Z,27.37
2017-12-17T07:34:38.895Z,31.90
2017-12-17T07:37:08.114Z,29.13
2017-12-17T07:39:37.338Z,28.27
2017-12-17T07:42:07.343Z,31.73
2017-12-17T07:44:37.325Z,39.10
2017-12-17T07:47:06.520Z,35.83
2017-12-17T07:49:35.722Z,34.40
2017-12-17T07:52:04.944Z,32.03
2017-12-17T07:54:34.167Z,28.30
2017-12-17T07:57:04.160Z,26.93
2017-12-17T07:59:33.351Z,29.50
2017-12-17T08:02:02.536Z,31.20
2017-12-17T08:04:31.787Z,30.33
2017-12-17T08:07:00.989Z,26.63
2017-12-17T08:09:30.203Z,27.10
2017-12-17T08:11:59.397Z,26.00
2017-12-17T08:14:28.696Z,30.30
2017-12-17T08:16:58.672Z,32.00
2017-12-17T08:19:28.836Z,29.53
2017-12-17T08:21:58.043Z,31.00
2017-12-17T08:24:27.270Z,28.40
2017-12-17T08:26:56.562Z,26.20
2017-12-17T08:29:25.819Z,26.30
2017-12-17T08:31:55.061Z,30.23
2017-12-17T08:34:24.279Z,24.53
2017-12-17T08:36:54.270Z,29.00
2017-12-17T08:39:23.459Z,29.73
2017-12-17T08:41:52.659Z,25.57
2017-12-17T08:44:21.850Z,31.00
2017-12-17T08:46:51.079Z,27.53
2017-12-17T08:49:21.064Z,31.30
2017-12-17T08:51:50.281Z,39.63
2017-12-17T08:54:19.478Z,43.67
2017-12-17T08:56:48.679Z,39.97
2017-12-17T08:59:18.659Z,32.07
2017-12-17T09:01:47.851Z,38.60
2017-12-17T09:04:17.062Z,33.60
2017-12-17T09:06:46.264Z,30.27
2017-12-17T09:09:15.467Z,40.83
2017-12-17T09:11:44.650Z,36.17
2017-12-17T09:14:13.866Z,31.97
2017-12-17T09:16:43.048Z,37.83
2017-12-17T09:19:12.283Z,32.67
2017-12-17T09:21:42.252Z,38.60
2017-12-17T09:24:11.456Z,41.60
2017-12-17T09:26:40.724Z,42.83
2017-12-17T09:29:09.952Z,42.03
2017-12-17T09:31:39.152Z,46.07
2017-12-17T09:34:08.437Z,42.67
2017-12-17T09:36:38.417Z,56.40
2017-12-17T09:39:08.418Z,47.63
2017-12-17T09:41:37.699Z,40.20
2017-12-17T09:44:06.972Z,42.63
2017-12-17T09:46:36.167Z,40.63
2017-12-17T09:49:05.412Z,43.87
2017-12-17T09:51:35.428Z,45.63
2017-12-17T09:54:05.004Z,46.00
2017-12-17T09:56:34.211Z,45.17
2017-12-17T09:59:03.450Z,43.53
2017-12-17T10:01:32.746Z,44.83
2017-12-17T10:04:02.071Z,41.73
2017-12-17T10:06:31.327Z,48.10
2017-12-17T10:09:00.532Z,46.07
2017-12-17T10:11:30.501Z,48.63
2017-12-17T10:13:59.748Z,55.67
2017-12-17T10:16:29.695Z,49.20
2017-12-17T10:18:59.042Z,39.67
2017-12-17T10:21:28.260Z,46.40
2017-12-17T10:23:57.447Z,45.20
2017-12-17T10:26:27.447Z,40.90
2017-12-17T10:28:57.442Z,44.13
2017-12-17T10:31:26.677Z,41.33
2017-12-17T10:33:56.662Z,47.17
2017-12-17T10:36:25.864Z,42.37
2017-12-17T10:38:55.108Z,40.93
2017-12-17T10:41:24.330Z,43.10
2017-12-17T10:43:53.537Z,45.17
2017-12-17T10:46:22.776Z,33.97
2017-12-17T10:48:51.955Z,41.73
2017-12-17T10:51:21.179Z,33.90
2017-12-17T10:53:50.388Z,36.33
2017-12-17T10:56:20.642Z,36.73
2017-12-17T10:58:50.599Z,41.23
2017-12-17T11:01:19.815Z,40.70
2017-12-17T11:03:49.812Z,38.20
2017-12-17T11:06:19.088Z,37.00
2017-12-17T11:08:48.315Z,32.40
2017-12-17T11:11:18.278Z,32.50
2017-12-17T11:13:47.601Z,38.43
2017-12-17T11:16:16.980Z,32.37
2017-12-17T11:18:47.021Z,37.07
2017-12-17T11:21:16.254Z,33.27
2017-12-17T11:23:45.458Z,43.07
2017-12-17T11:26:14.787Z,36.00
2017-12-17T11:28:44.010Z,36.10
2017-12-17T11:31:13.328Z,32.40
2017-12-17T11:33:42.582Z,36.97
2017-12-17T11:36:11.801Z,30.23
2017-12-17T11:38:41.012Z,35.53
2017-12-17T11:41:10.266Z,28.93
2017-12-17T11:43:39.480Z,37.03
2017-12-17T11:46:08.781Z,29.43
2017-12-17T11:48:37.955Z,28.53
2017-12-17T11:51:07.211Z,24.87
2017-12-17T11:53:38.032Z,32.30
2017-12-17T11:56:07.292Z,25.80
2017-12-17T11:58:36.600Z,30.77
2017-12-17T12:01:05.787Z,25.30
2017-12-17T12:03:35.099Z,31.40
2017-12-17T12:06:04.347Z,25.83
2017-12-17T12:08:33.602Z,31.33
2017-12-17T12:11:02.811Z,30.57
2017-12-17T12:13:32.027Z,32.40
2017-12-17T12:16:01.240Z,37.77
2017-12-17T12:18:30.472Z,31.47
2017-12-17T12:20:59.668Z,32.57
2017-12-17T12:23:28.860Z,30.60
2017-12-17T12:25:58.148Z,25.73
2017-12-17T12:28:28.112Z,30.63
2017-12-17T12:30:57.378Z,30.13
2017-12-17T12:33:27.325Z,27.70
2017-12-17T12:35:56.524Z,33.63
2017-12-17T12:38:25.814Z,31.47
2017-12-17T12:40:55.251Z,35.07
2017-12-17T12:43:24.486Z,30.77
2017-12-17T12:45:54.455Z,34.10
2017-12-17T12:48:23.967Z,32.20
2017-12-17T12:50:53.160Z,33.80
2017-12-17T12:53:22.395Z,30.57
2017-12-17T12:55:51.647Z,48.17
2017-12-17T12:58:20.876Z,35.67
2017-12-17T13:00:50.154Z,30.57
2017-12-17T13:03:19.347Z,38.40
2017-12-17T13:05:48.563Z,30.57
2017-12-17T13:08:18.551Z,37.30
2017-12-17T13:10:47.840Z,35.77
2017-12-17T13:13:17.058Z,38.03
2017-12-17T13:15:46.315Z,35.90
2017-12-17T13:18:15.546Z,35.30
2017-12-17T13:20:44.768Z,29.00
2017-12-17T13:23:14.754Z,35.90
2017-12-17T13:25:43.978Z,32.50
2017-12-17T13:28:13.993Z,36.00
2017-12-17T13:30:43.201Z,31.30
2017-12-17T13:33:12.719Z,40.93
2017-12-17T13:35:42.692Z,34.63
2017-12-17T13:38:11.924Z,34.53
2017-12-17T13:40:41.290Z,30.53
2017-12-17T13:43:10.541Z,33.23
2017-12-17T13:45:40.502Z,37.00
2017-12-17T13:48:09.805Z,32.67
2017-12-17T13:50:39.031Z,36.27
2017-12-17T13:53:09.012Z,37.13
2017-12-17T13:55:38.223Z,39.83
2017-12-17T13:58:07.470Z,36.97
2017-12-17T14:00:36.687Z,39.20
2017-12-17T14:03:05.870Z,37.23
2017-12-17T14:05:35.184Z,45.20
2017-12-17T14:08:04.362Z,31.57
2017-12-17T14:10:33.555Z,34.37
2017-12-17T14:13:02.881Z,35.13
2017-12-17T14:15:32.090Z,36.87
2017-12-17T14:18:01.310Z,49.40
2017-12-17T14:20:30.560Z,39.83
2017-12-17T14:22:59.780Z,39.87
2017-12-17T14:25:29.158Z,31.70
2017-12-17T14:27:58.413Z,41.53
2017-12-17T14:30:28.398Z,41.73
2017-12-17T14:32:57.620Z,35.10
2017-12-17T14:35:26.826Z,36.80
2017-12-17T14:37:56.847Z,38.20
2017-12-17T14:40:29.696Z,29.57
2017-12-17T14:42:58.916Z,29.77
2017-12-17T14:45:28.140Z,36.47
2017-12-17T14:47:58.111Z,35.33
2017-12-17T14:50:27.388Z,37.83
2017-12-17T14:52:56.609Z,36.13
2017-12-17T14:55:25.806Z,34.87
2017-12-17T14:57:55.041Z,36.43
2017-12-17T15:00:25.060Z,26.03
2017-12-17T15:02:55.113Z,29.33
2017-12-17T15:05:24.331Z,25.30
2017-12-17T15:07:53.607Z,25.03
2017-12-17T15:10:22.855Z,23.27
2017-12-17T15:12:52.047Z,20.63
2017-12-17T15:15:21.410Z,29.10
2017-12-17T15:17:50.611Z,21.63
2017-12-17T15:20:19.844Z,22.03
2017-12-17T15:22:49.072Z,27.43
2017-12-17T15:25:18.308Z,26.03
2017-12-17T15:27:47.564Z,20.50
2017-12-17T15:30:17.533Z,22.03
2017-12-17T15:32:46.747Z,22.43
2017-12-17T15:35:15.980Z,23.80
2017-12-17T15:37:45.180Z,26.20
2017-12-17T15:40:14.410Z,22.13
2017-12-17T15:42:43.779Z,28.73
2017-12-17T15:45:13.026Z,29.70
2017-12-17T15:47:42.235Z,26.40
2017-12-17T15:50:11.458Z,29.57
2017-12-17T15:52:41.429Z,37.90
2017-12-17T15:55:10.645Z,30.33
2017-12-17T15:57:39.852Z,32.47
2017-12-17T16:00:09.106Z,39.23
2017-12-17T16:02:38.316Z,30.00
2017-12-17T16:05:07.514Z,27.10
2017-12-17T16:07:36.754Z,28.87
2017-12-17T16:10:06.724Z,26.93
2017-12-17T16:12:35.924Z,24.57
2017-12-17T16:15:05.136Z,30.50
2017-12-17T16:17:34.345Z,24.90
2017-12-17T16:20:05.092Z,23.57
2017-12-17T16:22:35.044Z,22.93
2017-12-17T16:25:04.291Z,23.93
2017-12-17T16:27:33.582Z,20.23
2017-12-17T16:30:02.794Z,25.33
2017-12-17T16:32:32.796Z,23.50
2017-12-17T16:35:02.041Z,21.50
2017-12-17T16:37:31.301Z,22.23
2017-12-17T16:40:00.525Z,16.13
2017-12-17T16:42:29.764Z,27.67
2017-12-17T16:44:59.276Z,21.27
2017-12-17T16:47:28.531Z,19.50
2017-12-17T16:49:57.747Z,25.23
2017-12-17T16:52:26.954Z,24.60
2017-12-17T16:54:56.189Z,17.67
2017-12-17T16:57:25.423Z,20.77
2017-12-17T16:59:55.459Z,23.07
2017-12-17T17:02:24.716Z,18.70
2017-12-17T17:04:53.964Z,18.63
2017-12-17T17:07:23.203Z,22.00
2017-12-17T17:09:52.470Z,27.63
2017-12-17T17:12:21.687Z,27.27
2017-12-17T17:14:50.971Z,24.30
2017-12-17T17:17:20.222Z,30.33
2017-12-17T17:19:50.232Z,36.53
2017-12-17T17:22:20.377Z,24.93
2017-12-17T17:24:49.696Z,25.03
2017-12-17T17:27:19.029Z,27.47
2017-12-17T17:29:48.358Z,24.40
2017-12-17T17:32:18.382Z,28.70
2017-12-17T17:34:47.816Z,29.53
2017-12-17T17:37:17.171Z,29.97
2017-12-17T17:39:46.484Z,34.57
2017-12-17T17:42:15.715Z,26.83
2017-12-17T17:44:44.983Z,24.97
2017-12-17T17:47:14.983Z,24.83
2017-12-17T17:49:44.963Z,26.00
2017-12-17T17:52:14.437Z,42.33
2017-12-17T17:54:44.435Z,36.20
2017-12-17T17:57:13.758Z,34.57
2017-12-17T17:59:42.981Z,32.57
2017-12-17T18:02:12.260Z,34.60
2017-12-17T18:04:41.499Z,24.40
2017-12-17T18:07:11.542Z,31.30
2017-12-17T18:09:41.579Z,23.67
2017-12-17T18:12:10.937Z,30.73
2017-12-17T18:14:40.191Z,26.27
2017-12-17T18:17:09.452Z,25.67
2017-12-17T18:19:39.517Z,23.30
2017-12-17T18:22:08.959Z,27.23
2017-12-17T18:24:38.988Z,24.40
2017-12-17T18:27:09.025Z,26.43
2017-12-17T18:29:38.313Z,24.57
2017-12-17T18:32:07.680Z,21.13
2017-12-17T18:34:38.592Z,21.87
2017-12-17T18:37:07.936Z,24.57
2017-12-17T18:39:38.071Z,27.00
2017-12-17T18:42:07.510Z,24.77
2017-12-17T18:44:37.648Z,21.40
2017-12-17T18:47:07.184Z,26.57
2017-12-17T18:49:36.591Z,22.37
2017-12-17T18:52:07.620Z,22.63
2017-12-17T18:54:37.910Z,29.07
2017-12-17T18:57:08.403Z,24.47
2017-12-17T18:59:37.877Z,27.90
2017-12-17T19:02:07.367Z,26.60
2017-12-17T19:04:36.778Z,26.73
2017-12-17T19:07:07.075Z,31.57
2017-12-17T19:09:36.592Z,28.07
2017-12-17T19:12:06.219Z,32.87
2017-12-17T19:14:36.445Z,25.90
2017-12-17T19:17:06.660Z,28.03
2017-12-17T19:19:37.715Z,38.63
2017-12-17T19:22:08.032Z,26.10
2017-12-17T19:24:38.325Z,29.87
2017-12-17T19:27:07.905Z,30.50
2017-12-17T19:29:37.479Z,27.10
2017-12-17T19:32:06.925Z,33.70
2017-12-17T19:34:36.370Z,35.50
2017-12-17T19:37:06.068Z,37.03
2017-12-17T19:39:36.482Z,31.73
2017-12-17T19:42:06.799Z,29.77
2017-12-17T19:44:36.478Z,38.50
2017-12-17T19:47:06.202Z,42.23
2017-12-17T19:49:35.999Z,41.20
2017-12-17T19:52:05.795Z,36.37
2017-12-17T19:54:35.438Z,22.73
2017-12-17T19:57:04.875Z,33.40
2017-12-17T19:59:34.620Z,31.93
2017-12-17T20:02:04.278Z,34.00
2017-12-17T20:04:34.036Z,30.53
2017-12-17T20:07:03.940Z,27.97
2017-12-17T20:09:34.220Z,34.87
2017-12-17T20:12:04.027Z,38.20
2017-12-17T20:14:33.917Z,27.77
2017-12-17T20:17:03.833Z,30.63
2017-12-17T20:19:33.676Z,32.10
2017-12-17T20:22:03.939Z,28.03
2017-12-17T20:24:33.681Z,32.57
2017-12-17T20:27:04.103Z,34.73
2017-12-17T20:29:34.629Z,33.17
2017-12-17T20:32:04.130Z,25.87
2017-12-17T20:34:34.684Z,26.10
2017-12-17T20:37:04.904Z,35.73
2017-12-17T20:39:34.431Z,31.20
2017-12-17T20:42:04.070Z,28.17
2017-12-17T20:44:33.475Z,27.40
2017-12-17T20:47:03.205Z,26.13
2017-12-17T20:49:32.690Z,30.23
2017-12-17T20:52:02.161Z,31.10
2017-12-17T20:54:31.860Z,29.37
2017-12-17T20:57:01.463Z,25.33
2017-12-17T20:59:30.985Z,25.30
2017-12-17T21:02:01.226Z,29.47
2017-12-17T21:04:30.842Z,28.67
2017-12-17T21:07:00.321Z,23.10
2017-12-17T21:09:30.578Z,24.40
2017-12-17T21:11:59.952Z,29.60
2017-12-17T21:14:29.569Z,34.83
2017-12-17T21:16:58.835Z,26.63
2017-12-17T21:19:28.898Z,20.10
2017-12-17T21:21:58.125Z,20.30
2017-12-17T21:24:27.590Z,25.20
2017-12-17T21:26:56.849Z,20.40
2017-12-17T21:29:26.153Z,21.60
2017-12-17T21:31:55.425Z,27.70
2017-12-17T21:34:24.743Z,24.60
2017-12-17T21:36:53.995Z,22.93
2017-12-17T21:39:23.315Z,23.93
2017-12-17T21:41:52.555Z,20.40
2017-12-17T21:44:22.539Z,22.70
2017-12-17T21:46:51.787Z,22.00
2017-12-17T21:49:21.008Z,24.60
2017-12-17T21:51:50.218Z,25.63
2017-12-17T21:54:19.477Z,19.93
2017-12-17T21:56:48.720Z,21.07
2017-12-17T21:59:17.986Z,25.30
2017-12-17T22:01:47.213Z,15.10
2017-12-17T22:04:16.464Z,21.27
2017-12-17T22:06:46.455Z,19.87
2017-12-17T22:09:15.680Z,28.90
2017-12-17T22:11:45.659Z,17.30
2017-12-17T22:14:14.923Z,27.43
2017-12-17T22:16:44.140Z,13.50
2017-12-17T22:19:13.403Z,20.67
2017-12-17T22:21:42.614Z,12.10
2017-12-17T22:24:11.858Z,25.03
2017-12-17T22:26:41.126Z,16.87
2017-12-17T22:29:10.311Z,13.47
2017-12-17T22:31:39.582Z,14.03
2017-12-17T22:34:09.592Z,15.33
2017-12-17T22:36:39.627Z,11.27
2017-12-17T22:39:08.813Z,13.70
2017-12-17T22:41:38.782Z,13.20
2017-12-17T22:44:08.022Z,13.03
2017-12-17T22:46:37.300Z,9.57
2017-12-17T22:49:06.643Z,9.97
2017-12-17T22:51:35.937Z,11.20
2017-12-17T22:54:05.884Z,8.67
2017-12-17T22:56:35.106Z,8.37
2017-12-17T22:59:04.331Z,10.77
2017-12-17T23:01:33.764Z,11.20
2017-12-17T23:04:02.966Z,10.27
2017-12-17T23:06:32.167Z,8.53
2017-12-17T23:09:01.488Z,7.63
2017-12-17T23:11:30.706Z,7.90
2017-12-17T23:14:00.695Z,8.27
2017-12-17T23:16:30.001Z,8.90
2017-12-17T23:18:59.202Z,8.73
2017-12-17T23:21:28.423Z,9.10
2017-12-17T23:23:58.438Z,9.47
2017-12-17T23:26:27.643Z,7.50
2017-12-17T23:28:57.633Z,6.47
2017-12-17T23:31:26.828Z,6.40
2017-12-17T23:33:56.052Z,6.10
2017-12-17T23:36:26.037Z,7.97
2017-12-17T23:38:55.238Z,8.73
2017-12-17T23:41:24.421Z,8.30
2017-12-17T23:43:53.614Z,6.77
2017-12-17T23:46:22.804Z,7.10
2017-12-17T23:48:51.995Z,9.90
2017-12-17T23:51:21.199Z,5.70
2017-12-17T23:53:50.378Z,6.83
2017-12-17T23:56:19.586Z,6.47
2017-12-17T23:58:48.841Z,8.27
